sensor_id;sensor_type;location;lat;lon;timestamp;P1;durP1;ratioP1;P2;durP2;ratioP2
41446;SDS011;27185;52.040;4.490;2023-10-08T00:01:03;18.30;;;5.25;;
41446;SDS011;27185;52.040;4.490;2023-10-08T00:03:51;15.85;;;4.90;;
41446;SDS011;27185;52.040;4.490;2023-10-08T00:06:38;19.33;;;4.85;;
41446;SDS011;27185;52.040;4.490;2023-10-08T00:09:24;15.52;;;4.93;;
41446;SDS011;27185;52.040;4.490;2023-10-08T00:12:10;11.60;;;4.47;;
41446;SDS011;27185;52.040;4.490;2023-10-08T00:17:45;14.27;;;3.92;;
41446;SDS011;27185;52.040;4.490;2023-10-08T00:20:31;15.60;;;5.13;;
41446;SDS011;27185;52.040;4.490;2023-10-08T00:23:28;13.63;;;4.43;;
41446;SDS011;27185;52.040;4.490;2023-10-08T00:26:15;15.57;;;5.15;;
41446;SDS011;27185;52.040;4.490;2023-10-08T00:29:04;16.33;;;4.57;;
41446;SDS011;27185;52.040;4.490;2023-10-08T00:32:00;14.77;;;4.57;;
41446;SDS011;27185;52.040;4.490;2023-10-08T00:34:56;17.05;;;4.38;;
41446;SDS011;27185;52.040;4.490;2023-10-08T00:37:42;14.20;;;4.63;;
41446;SDS011;27185;52.040;4.490;2023-10-08T00:40:35;13.13;;;4.57;;
41446;SDS011;27185;52.040;4.490;2023-10-08T00:43:34;13.70;;;4.93;;
41446;SDS011;27185;52.040;4.490;2023-10-08T00:46:20;15.30;;;4.53;;
41446;SDS011;27185;52.040;4.490;2023-10-08T00:49:12;15.68;;;4.45;;
41446;SDS011;27185;52.040;4.490;2023-10-08T00:52:11;11.77;;;4.10;;
41446;SDS011;27185;52.040;4.490;2023-10-08T00:54:58;14.43;;;4.32;;
41446;SDS011;27185;52.040;4.490;2023-10-08T00:57:50;15.00;;;4.40;;
41446;SDS011;27185;52.040;4.490;2023-10-08T01:00:42;12.82;;;5.32;;
41446;SDS011;27185;52.040;4.490;2023-10-08T01:03:29;11.73;;;4.85;;
41446;SDS011;27185;52.040;4.490;2023-10-08T01:06:14;13.27;;;4.47;;
41446;SDS011;27185;52.040;4.490;2023-10-08T01:09:03;15.05;;;4.07;;
41446;SDS011;27185;52.040;4.490;2023-10-08T01:14:54;11.57;;;4.72;;
41446;SDS011;27185;52.040;4.490;2023-10-08T01:17:40;14.60;;;5.32;;
41446;SDS011;27185;52.040;4.490;2023-10-08T01:20:30;18.58;;;5.22;;
41446;SDS011;27185;52.040;4.490;2023-10-08T01:23:21;14.98;;;5.25;;
41446;SDS011;27185;52.040;4.490;2023-10-08T01:26:11;11.57;;;4.82;;
41446;SDS011;27185;52.040;4.490;2023-10-08T01:28:58;17.52;;;5.00;;
41446;SDS011;27185;52.040;4.490;2023-10-08T01:31:48;15.63;;;4.70;;
41446;SDS011;27185;52.040;4.490;2023-10-08T01:34:34;13.85;;;4.55;;
41446;SDS011;27185;52.040;4.490;2023-10-08T01:37:21;13.27;;;4.80;;
41446;SDS011;27185;52.040;4.490;2023-10-08T01:40:07;13.52;;;4.53;;
41446;SDS011;27185;52.040;4.490;2023-10-08T01:42:53;10.57;;;4.53;;
41446;SDS011;27185;52.040;4.490;2023-10-08T01:45:38;13.38;;;5.15;;
41446;SDS011;27185;52.040;4.490;2023-10-08T01:48:26;15.20;;;5.03;;
41446;SDS011;27185;52.040;4.490;2023-10-08T01:51:13;12.80;;;4.78;;
41446;SDS011;27185;52.040;4.490;2023-10-08T01:54:09;14.20;;;4.75;;
41446;SDS011;27185;52.040;4.490;2023-10-08T01:56:56;14.18;;;4.97;;
41446;SDS011;27185;52.040;4.490;2023-10-08T01:59:41;19.13;;;5.13;;
41446;SDS011;27185;52.040;4.490;2023-10-08T02:02:29;12.80;;;5.20;;
41446;SDS011;27185;52.040;4.490;2023-10-08T02:05:14;12.27;;;4.53;;
41446;SDS011;27185;52.040;4.490;2023-10-08T02:08:00;14.80;;;4.68;;
41446;SDS011;27185;52.040;4.490;2023-10-08T02:10:48;14.02;;;5.03;;
41446;SDS011;27185;52.040;4.490;2023-10-08T02:13:34;12.23;;;4.53;;
41446;SDS011;27185;52.040;4.490;2023-10-08T02:16:19;11.88;;;4.55;;
41446;SDS011;27185;52.040;4.490;2023-10-08T02:19:07;11.18;;;4.95;;
41446;SDS011;27185;52.040;4.490;2023-10-08T02:21:56;14.55;;;4.88;;
41446;SDS011;27185;52.040;4.490;2023-10-08T02:24:42;13.10;;;5.10;;
41446;SDS011;27185;52.040;4.490;2023-10-08T02:27:28;11.65;;;4.60;;
41446;SDS011;27185;52.040;4.490;2023-10-08T02:30:14;13.93;;;5.07;;
41446;SDS011;27185;52.040;4.490;2023-10-08T02:32:59;15.68;;;5.38;;
41446;SDS011;27185;52.040;4.490;2023-10-08T02:35:45;13.45;;;5.25;;
41446;SDS011;27185;52.040;4.490;2023-10-08T02:38:31;13.57;;;5.03;;
41446;SDS011;27185;52.040;4.490;2023-10-08T02:41:22;12.25;;;4.95;;
41446;SDS011;27185;52.040;4.490;2023-10-08T02:44:09;17.35;;;5.15;;
41446;SDS011;27185;52.040;4.490;2023-10-08T02:46:58;13.63;;;5.00;;
41446;SDS011;27185;52.040;4.490;2023-10-08T02:49:44;16.42;;;5.13;;
41446;SDS011;27185;52.040;4.490;2023-10-08T02:52:29;15.50;;;5.47;;
41446;SDS011;27185;52.040;4.490;2023-10-08T02:55:18;12.82;;;5.70;;
41446;SDS011;27185;52.040;4.490;2023-10-08T02:58:33;16.98;;;5.10;;
41446;SDS011;27185;52.040;4.490;2023-10-08T03:04:07;14.10;;;4.57;;
41446;SDS011;27185;52.040;4.490;2023-10-08T03:07:07;10.05;;;3.72;;
41446;SDS011;27185;52.040;4.490;2023-10-08T03:09:57;12.73;;;4.78;;
41446;SDS011;27185;52.040;4.490;2023-10-08T03:13:02;11.43;;;4.40;;
41446;SDS011;27185;52.040;4.490;2023-10-08T03:15:52;12.75;;;4.63;;
41446;SDS011;27185;52.040;4.490;2023-10-08T03:18:47;12.02;;;4.63;;
41446;SDS011;27185;52.040;4.490;2023-10-08T03:21:35;11.13;;;4.80;;
41446;SDS011;27185;52.040;4.490;2023-10-08T03:24:23;11.00;;;4.93;;
41446;SDS011;27185;52.040;4.490;2023-10-08T03:27:15;17.38;;;5.10;;
41446;SDS011;27185;52.040;4.490;2023-10-08T03:30:05;14.77;;;5.45;;
41446;SDS011;27185;52.040;4.490;2023-10-08T03:32:52;12.77;;;4.70;;
41446;SDS011;27185;52.040;4.490;2023-10-08T03:35:41;18.17;;;5.60;;
41446;SDS011;27185;52.040;4.490;2023-10-08T03:38:28;13.25;;;5.47;;
41446;SDS011;27185;52.040;4.490;2023-10-08T03:41:29;12.55;;;5.25;;
41446;SDS011;27185;52.040;4.490;2023-10-08T03:44:14;17.13;;;5.68;;
41446;SDS011;27185;52.040;4.490;2023-10-08T03:47:01;18.13;;;6.27;;
41446;SDS011;27185;52.040;4.490;2023-10-08T03:49:55;21.08;;;5.88;;
41446;SDS011;27185;52.040;4.490;2023-10-08T03:52:41;16.33;;;5.65;;
41446;SDS011;27185;52.040;4.490;2023-10-08T03:55:28;14.88;;;5.13;;
41446;SDS011;27185;52.040;4.490;2023-10-08T03:58:20;16.15;;;5.32;;
41446;SDS011;27185;52.040;4.490;2023-10-08T04:01:16;14.98;;;5.20;;
41446;SDS011;27185;52.040;4.490;2023-10-08T04:04:04;17.45;;;5.25;;
41446;SDS011;27185;52.040;4.490;2023-10-08T04:06:51;18.55;;;5.50;;
41446;SDS011;27185;52.040;4.490;2023-10-08T04:09:36;13.80;;;5.90;;
41446;SDS011;27185;52.040;4.490;2023-10-08T04:12:24;15.23;;;5.57;;
41446;SDS011;27185;52.040;4.490;2023-10-08T04:15:12;16.85;;;5.68;;
41446;SDS011;27185;52.040;4.490;2023-10-08T04:18:01;15.32;;;5.55;;
41446;SDS011;27185;52.040;4.490;2023-10-08T04:20:48;15.10;;;6.07;;
41446;SDS011;27185;52.040;4.490;2023-10-08T04:26:36;15.38;;;4.68;;
41446;SDS011;27185;52.040;4.490;2023-10-08T04:29:26;13.98;;;5.65;;
41446;SDS011;27185;52.040;4.490;2023-10-08T04:32:16;13.35;;;5.70;;
41446;SDS011;27185;52.040;4.490;2023-10-08T04:35:09;19.27;;;5.45;;
41446;SDS011;27185;52.040;4.490;2023-10-08T04:37:59;12.40;;;5.07;;
41446;SDS011;27185;52.040;4.490;2023-10-08T04:40:45;14.45;;;5.43;;
41446;SDS011;27185;52.040;4.490;2023-10-08T04:43:36;12.88;;;5.70;;
41446;SDS011;27185;52.040;4.490;2023-10-08T04:46:27;16.13;;;5.22;;
41446;SDS011;27185;52.040;4.490;2023-10-08T04:49:31;13.80;;;5.70;;
41446;SDS011;27185;52.040;4.490;2023-10-08T04:52:19;13.43;;;4.53;;
41446;SDS011;27185;52.040;4.490;2023-10-08T04:55:06;16.58;;;5.43;;
41446;SDS011;27185;52.040;4.490;2023-10-08T04:58:00;15.85;;;6.05;;
41446;SDS011;27185;52.040;4.490;2023-10-08T05:00:50;15.82;;;6.07;;
41446;SDS011;27185;52.040;4.490;2023-10-08T05:03:38;16.30;;;5.63;;
41446;SDS011;27185;52.040;4.490;2023-10-08T05:06:39;19.75;;;6.97;;
41446;SDS011;27185;52.040;4.490;2023-10-08T05:09:35;14.20;;;5.20;;
41446;SDS011;27185;52.040;4.490;2023-10-08T05:12:30;13.35;;;6.05;;
41446;SDS011;27185;52.040;4.490;2023-10-08T05:15:34;20.95;;;7.20;;
41446;SDS011;27185;52.040;4.490;2023-10-08T05:18:51;13.38;;;5.45;;
41446;SDS011;27185;52.040;4.490;2023-10-08T05:21:52;17.35;;;6.10;;
41446;SDS011;27185;52.040;4.490;2023-10-08T05:24:50;17.20;;;6.15;;
41446;SDS011;27185;52.040;4.490;2023-10-08T05:28:14;14.18;;;6.18;;
41446;SDS011;27185;52.040;4.490;2023-10-08T05:31:09;24.70;;;8.38;;
41446;SDS011;27185;52.040;4.490;2023-10-08T05:34:00;16.55;;;8.25;;
41446;SDS011;27185;52.040;4.490;2023-10-08T05:37:17;16.00;;;7.18;;
41446;SDS011;27185;52.040;4.490;2023-10-08T05:40:26;16.67;;;6.63;;
41446;SDS011;27185;52.040;4.490;2023-10-08T05:46:22;17.67;;;5.43;;
41446;SDS011;27185;52.040;4.490;2023-10-08T05:49:07;17.88;;;5.63;;
41446;SDS011;27185;52.040;4.490;2023-10-08T05:51:53;14.20;;;4.65;;
41446;SDS011;27185;52.040;4.490;2023-10-08T05:54:39;13.85;;;3.92;;
41446;SDS011;27185;52.040;4.490;2023-10-08T05:57:42;10.10;;;3.40;;
41446;SDS011;27185;52.040;4.490;2023-10-08T06:00:31;16.00;;;3.42;;
41446;SDS011;27185;52.040;4.490;2023-10-08T06:03:20;18.25;;;4.88;;
41446;SDS011;27185;52.040;4.490;2023-10-08T06:06:21;18.50;;;3.92;;
41446;SDS011;27185;52.040;4.490;2023-10-08T06:09:06;17.23;;;4.32;;
41446;SDS011;27185;52.040;4.490;2023-10-08T06:11:52;10.98;;;4.18;;
41446;SDS011;27185;52.040;4.490;2023-10-08T06:14:56;13.15;;;4.35;;
41446;SDS011;27185;52.040;4.490;2023-10-08T06:18:08;19.55;;;3.83;;
41446;SDS011;27185;52.040;4.490;2023-10-08T06:20:54;21.65;;;3.55;;
41446;SDS011;27185;52.040;4.490;2023-10-08T06:23:41;16.10;;;4.57;;
41446;SDS011;27185;52.040;4.490;2023-10-08T06:26:31;11.10;;;3.20;;
41446;SDS011;27185;52.040;4.490;2023-10-08T06:29:19;10.38;;;2.65;;
41446;SDS011;27185;52.040;4.490;2023-10-08T06:32:12;11.23;;;3.33;;
41446;SDS011;27185;52.040;4.490;2023-10-08T06:34:57;9.10;;;2.80;;
41446;SDS011;27185;52.040;4.490;2023-10-08T06:37:46;7.18;;;4.07;;
41446;SDS011;27185;52.040;4.490;2023-10-08T06:40:34;8.35;;;3.10;;
41446;SDS011;27185;52.040;4.490;2023-10-08T06:43:23;10.93;;;3.78;;
41446;SDS011;27185;52.040;4.490;2023-10-08T06:46:09;11.57;;;4.88;;
41446;SDS011;27185;52.040;4.490;2023-10-08T06:48:57;12.88;;;4.50;;
41446;SDS011;27185;52.040;4.490;2023-10-08T06:51:48;14.52;;;5.53;;
41446;SDS011;27185;52.040;4.490;2023-10-08T06:54:35;16.17;;;6.03;;
41446;SDS011;27185;52.040;4.490;2023-10-08T06:57:21;20.23;;;6.80;;
41446;SDS011;27185;52.040;4.490;2023-10-08T07:00:06;15.57;;;6.30;;
41446;SDS011;27185;52.040;4.490;2023-10-08T07:02:57;13.85;;;5.75;;
41446;SDS011;27185;52.040;4.490;2023-10-08T07:05:46;17.98;;;6.38;;
41446;SDS011;27185;52.040;4.490;2023-10-08T07:08:43;18.13;;;5.97;;
41446;SDS011;27185;52.040;4.490;2023-10-08T07:11:32;19.98;;;6.38;;
41446;SDS011;27185;52.040;4.490;2023-10-08T07:14:24;18.27;;;5.13;;
41446;SDS011;27185;52.040;4.490;2023-10-08T07:17:14;16.13;;;5.75;;
41446;SDS011;27185;52.040;4.490;2023-10-08T07:20:04;12.23;;;5.22;;
41446;SDS011;27185;52.040;4.490;2023-10-08T07:22:58;21.05;;;6.22;;
41446;SDS011;27185;52.040;4.490;2023-10-08T07:25:51;20.95;;;6.18;;
41446;SDS011;27185;52.040;4.490;2023-10-08T07:28:38;11.70;;;4.50;;
41446;SDS011;27185;52.040;4.490;2023-10-08T07:31:25;19.83;;;5.67;;
41446;SDS011;27185;52.040;4.490;2023-10-08T07:34:14;18.65;;;4.45;;
41446;SDS011;27185;52.040;4.490;2023-10-08T07:37:01;15.55;;;4.10;;
41446;SDS011;27185;52.040;4.490;2023-10-08T07:39:46;14.73;;;4.07;;
41446;SDS011;27185;52.040;4.490;2023-10-08T07:42:32;12.18;;;3.65;;
41446;SDS011;27185;52.040;4.490;2023-10-08T07:45:18;11.93;;;3.75;;
41446;SDS011;27185;52.040;4.490;2023-10-08T07:48:06;10.52;;;3.03;;
41446;SDS011;27185;52.040;4.490;2023-10-08T07:50:55;8.40;;;3.00;;
41446;SDS011;27185;52.040;4.490;2023-10-08T07:53:41;10.67;;;3.10;;
41446;SDS011;27185;52.040;4.490;2023-10-08T07:56:27;10.70;;;3.22;;
41446;SDS011;27185;52.040;4.490;2023-10-08T07:59:13;11.52;;;2.92;;
41446;SDS011;27185;52.040;4.490;2023-10-08T08:01:59;9.40;;;2.78;;
41446;SDS011;27185;52.040;4.490;2023-10-08T08:04:45;9.32;;;2.63;;
41446;SDS011;27185;52.040;4.490;2023-10-08T08:07:35;9.85;;;2.63;;
41446;SDS011;27185;52.040;4.490;2023-10-08T08:10:22;10.10;;;3.30;;
41446;SDS011;27185;52.040;4.490;2023-10-08T08:13:08;10.80;;;2.88;;
41446;SDS011;27185;52.040;4.490;2023-10-08T08:15:55;10.20;;;3.30;;
41446;SDS011;27185;52.040;4.490;2023-10-08T08:18:50;9.70;;;3.50;;
41446;SDS011;27185;52.040;4.490;2023-10-08T08:21:43;11.55;;;3.22;;
41446;SDS011;27185;52.040;4.490;2023-10-08T08:24:30;10.80;;;3.40;;
41446;SDS011;27185;52.040;4.490;2023-10-08T08:27:20;7.28;;;2.85;;
41446;SDS011;27185;52.040;4.490;2023-10-08T08:30:10;10.60;;;2.42;;
41446;SDS011;27185;52.040;4.490;2023-10-08T08:33:00;7.95;;;2.60;;
41446;SDS011;27185;52.040;4.490;2023-10-08T08:35:58;8.10;;;2.65;;
41446;SDS011;27185;52.040;4.490;2023-10-08T08:38:45;8.65;;;2.75;;
41446;SDS011;27185;52.040;4.490;2023-10-08T08:41:32;10.93;;;3.60;;
41446;SDS011;27185;52.040;4.490;2023-10-08T08:44:22;9.57;;;2.78;;
41446;SDS011;27185;52.040;4.490;2023-10-08T08:47:08;11.27;;;2.92;;
41446;SDS011;27185;52.040;4.490;2023-10-08T08:50:02;12.00;;;2.47;;
41446;SDS011;27185;52.040;4.490;2023-10-08T08:52:53;11.15;;;2.60;;
41446;SDS011;27185;52.040;4.490;2023-10-08T08:55:39;14.13;;;3.95;;
41446;SDS011;27185;52.040;4.490;2023-10-08T08:58:26;11.82;;;2.90;;
41446;SDS011;27185;52.040;4.490;2023-10-08T09:01:14;10.23;;;2.72;;
41446;SDS011;27185;52.040;4.490;2023-10-08T09:04:02;10.63;;;2.13;;
41446;SDS011;27185;52.040;4.490;2023-10-08T09:06:50;10.50;;;2.05;;
41446;SDS011;27185;52.040;4.490;2023-10-08T09:09:35;10.55;;;2.50;;
41446;SDS011;27185;52.040;4.490;2023-10-08T09:12:29;14.18;;;2.72;;
41446;SDS011;27185;52.040;4.490;2023-10-08T09:15:19;10.00;;;2.40;;
41446;SDS011;27185;52.040;4.490;2023-10-08T09:18:07;13.95;;;2.50;;
41446;SDS011;27185;52.040;4.490;2023-10-08T09:20:54;7.65;;;2.40;;
41446;SDS011;27185;52.040;4.490;2023-10-08T09:23:40;9.60;;;3.17;;
41446;SDS011;27185;52.040;4.490;2023-10-08T09:26:28;6.35;;;2.03;;
41446;SDS011;27185;52.040;4.490;2023-10-08T09:29:14;9.40;;;3.28;;
41446;SDS011;27185;52.040;4.490;2023-10-08T09:32:00;9.15;;;2.63;;
41446;SDS011;27185;52.040;4.490;2023-10-08T09:34:45;9.07;;;3.20;;
41446;SDS011;27185;52.040;4.490;2023-10-08T09:37:31;10.00;;;2.22;;
41446;SDS011;27185;52.040;4.490;2023-10-08T09:40:19;7.88;;;2.35;;
41446;SDS011;27185;52.040;4.490;2023-10-08T09:43:06;8.17;;;2.43;;
41446;SDS011;27185;52.040;4.490;2023-10-08T09:45:55;12.48;;;2.85;;
41446;SDS011;27185;52.040;4.490;2023-10-08T09:48:51;12.90;;;2.95;;
41446;SDS011;27185;52.040;4.490;2023-10-08T09:51:40;6.80;;;2.10;;
41446;SDS011;27185;52.040;4.490;2023-10-08T09:54:29;9.13;;;2.17;;
41446;SDS011;27185;52.040;4.490;2023-10-08T09:57:22;9.95;;;1.90;;
41446;SDS011;27185;52.040;4.490;2023-10-08T10:00:11;8.18;;;2.20;;
41446;SDS011;27185;52.040;4.490;2023-10-08T10:03:03;8.77;;;2.38;;
41446;SDS011;27185;52.040;4.490;2023-10-08T10:05:49;8.75;;;2.20;;
41446;SDS011;27185;52.040;4.490;2023-10-08T10:08:35;8.50;;;2.55;;
41446;SDS011;27185;52.040;4.490;2023-10-08T10:11:21;8.98;;;2.30;;
41446;SDS011;27185;52.040;4.490;2023-10-08T10:14:11;7.63;;;2.13;;
41446;SDS011;27185;52.040;4.490;2023-10-08T10:17:08;9.95;;;2.38;;
41446;SDS011;27185;52.040;4.490;2023-10-08T10:20:01;6.95;;;2.28;;
41446;SDS011;27185;52.040;4.490;2023-10-08T10:22:48;11.38;;;2.60;;
41446;SDS011;27185;52.040;4.490;2023-10-08T10:25:34;9.68;;;2.15;;
41446;SDS011;27185;52.040;4.490;2023-10-08T10:28:29;7.72;;;2.92;;
41446;SDS011;27185;52.040;4.490;2023-10-08T10:31:18;12.13;;;2.90;;
41446;SDS011;27185;52.040;4.490;2023-10-08T10:34:08;8.55;;;2.45;;
41446;SDS011;27185;52.040;4.490;2023-10-08T10:36:58;12.18;;;2.65;;
41446;SDS011;27185;52.040;4.490;2023-10-08T10:39:54;7.78;;;2.53;;
41446;SDS011;27185;52.040;4.490;2023-10-08T10:42:47;10.02;;;2.90;;
41446;SDS011;27185;52.040;4.490;2023-10-08T10:45:38;10.43;;;3.55;;
41446;SDS011;27185;52.040;4.490;2023-10-08T10:48:32;13.02;;;3.10;;
41446;SDS011;27185;52.040;4.490;2023-10-08T10:51:23;7.63;;;2.47;;
41446;SDS011;27185;52.040;4.490;2023-10-08T10:54:09;6.07;;;2.28;;
41446;SDS011;27185;52.040;4.490;2023-10-08T10:56:55;9.00;;;3.35;;
41446;SDS011;27185;52.040;4.490;2023-10-08T10:59:50;8.85;;;3.13;;
41446;SDS011;27185;52.040;4.490;2023-10-08T11:02:39;6.47;;;2.65;;
41446;SDS011;27185;52.040;4.490;2023-10-08T11:05:31;10.32;;;3.05;;
41446;SDS011;27185;52.040;4.490;2023-10-08T11:08:22;10.88;;;3.38;;
41446;SDS011;27185;52.040;4.490;2023-10-08T11:11:11;12.07;;;4.18;;
41446;SDS011;27185;52.040;4.490;2023-10-08T11:13:57;10.07;;;3.35;;
41446;SDS011;27185;52.040;4.490;2023-10-08T11:16:45;10.23;;;4.20;;
41446;SDS011;27185;52.040;4.490;2023-10-08T11:22:18;7.72;;;3.30;;
41446;SDS011;27185;52.040;4.490;2023-10-08T11:25:19;8.45;;;2.85;;
41446;SDS011;27185;52.040;4.490;2023-10-08T11:28:09;14.90;;;3.90;;
41446;SDS011;27185;52.040;4.490;2023-10-08T11:33:44;8.13;;;3.58;;
41446;SDS011;27185;52.040;4.490;2023-10-08T11:36:39;9.90;;;2.97;;
41446;SDS011;27185;52.040;4.490;2023-10-08T11:39:41;8.80;;;3.13;;
41446;SDS011;27185;52.040;4.490;2023-10-08T11:42:30;8.20;;;2.80;;
41446;SDS011;27185;52.040;4.490;2023-10-08T11:45:21;10.02;;;2.53;;
41446;SDS011;27185;52.040;4.490;2023-10-08T11:48:11;11.43;;;3.65;;
41446;SDS011;27185;52.040;4.490;2023-10-08T11:50:57;11.43;;;3.17;;
41446;SDS011;27185;52.040;4.490;2023-10-08T11:53:46;11.55;;;3.40;;
41446;SDS011;27185;52.040;4.490;2023-10-08T11:56:32;9.93;;;2.97;;
41446;SDS011;27185;52.040;4.490;2023-10-08T11:59:18;10.90;;;3.65;;
41446;SDS011;27185;52.040;4.490;2023-10-08T12:02:04;9.95;;;3.47;;
41446;SDS011;27185;52.040;4.490;2023-10-08T12:04:50;7.13;;;3.33;;
41446;SDS011;27185;52.040;4.490;2023-10-08T12:07:36;10.95;;;4.03;;
41446;SDS011;27185;52.040;4.490;2023-10-08T12:10:24;11.82;;;4.50;;
41446;SDS011;27185;52.040;4.490;2023-10-08T12:13:10;9.32;;;3.78;;
41446;SDS011;27185;52.040;4.490;2023-10-08T12:15:56;10.20;;;3.85;;
41446;SDS011;27185;52.040;4.490;2023-10-08T12:18:51;8.85;;;3.47;;
41446;SDS011;27185;52.040;4.490;2023-10-08T12:21:38;11.57;;;3.95;;
41446;SDS011;27185;52.040;4.490;2023-10-08T12:24:24;9.35;;;4.00;;
41446;SDS011;27185;52.040;4.490;2023-10-08T12:27:09;8.20;;;3.80;;
41446;SDS011;27185;52.040;4.490;2023-10-08T12:29:56;8.88;;;4.07;;
41446;SDS011;27185;52.040;4.490;2023-10-08T12:32:43;10.05;;;4.22;;
41446;SDS011;27185;52.040;4.490;2023-10-08T12:35:31;10.50;;;4.32;;
41446;SDS011;27185;52.040;4.490;2023-10-08T12:38:17;11.30;;;5.05;;
41446;SDS011;27185;52.040;4.490;2023-10-08T12:41:05;11.98;;;4.90;;
41446;SDS011;27185;52.040;4.490;2023-10-08T12:43:57;16.15;;;6.80;;
41446;SDS011;27185;52.040;4.490;2023-10-08T12:46:43;14.73;;;5.68;;
41446;SDS011;27185;52.040;4.490;2023-10-08T12:49:29;11.20;;;5.38;;
41446;SDS011;27185;52.040;4.490;2023-10-08T12:52:18;10.45;;;5.80;;
41446;SDS011;27185;52.040;4.490;2023-10-08T12:55:05;14.70;;;7.00;;
41446;SDS011;27185;52.040;4.490;2023-10-08T12:57:52;12.90;;;5.30;;
41446;SDS011;27185;52.040;4.490;2023-10-08T13:00:40;13.18;;;6.35;;
41446;SDS011;27185;52.040;4.490;2023-10-08T13:03:26;16.40;;;6.63;;
41446;SDS011;27185;52.040;4.490;2023-10-08T13:06:17;14.73;;;7.78;;
41446;SDS011;27185;52.040;4.490;2023-10-08T13:09:16;13.10;;;7.53;;
41446;SDS011;27185;52.040;4.490;2023-10-08T13:12:02;17.80;;;8.23;;
41446;SDS011;27185;52.040;4.490;2023-10-08T13:14:48;15.95;;;7.70;;
41446;SDS011;27185;52.040;4.490;2023-10-08T13:17:34;18.17;;;8.15;;
41446;SDS011;27185;52.040;4.490;2023-10-08T13:20:20;15.35;;;7.70;;
41446;SDS011;27185;52.040;4.490;2023-10-08T13:23:06;18.13;;;8.20;;
41446;SDS011;27185;52.040;4.490;2023-10-08T13:25:52;13.60;;;6.95;;
41446;SDS011;27185;52.040;4.490;2023-10-08T13:28:43;15.13;;;7.72;;
41446;SDS011;27185;52.040;4.490;2023-10-08T13:31:32;17.40;;;7.47;;
41446;SDS011;27185;52.040;4.490;2023-10-08T13:34:21;15.32;;;6.70;;
41446;SDS011;27185;52.040;4.490;2023-10-08T13:37:06;14.15;;;6.88;;
41446;SDS011;27185;52.040;4.490;2023-10-08T13:39:52;14.80;;;7.30;;
41446;SDS011;27185;52.040;4.490;2023-10-08T13:42:38;13.07;;;6.88;;
41446;SDS011;27185;52.040;4.490;2023-10-08T13:45:23;17.15;;;8.02;;
41446;SDS011;27185;52.040;4.490;2023-10-08T13:48:14;15.02;;;8.32;;
41446;SDS011;27185;52.040;4.490;2023-10-08T13:51:00;14.60;;;7.00;;
41446;SDS011;27185;52.040;4.490;2023-10-08T13:53:52;14.88;;;7.38;;
41446;SDS011;27185;52.040;4.490;2023-10-08T13:56:38;15.73;;;7.53;;
41446;SDS011;27185;52.040;4.490;2023-10-08T13:59:27;17.27;;;8.55;;
41446;SDS011;27185;52.040;4.490;2023-10-08T14:02:16;17.52;;;7.80;;
41446;SDS011;27185;52.040;4.490;2023-10-08T14:05:06;17.35;;;8.27;;
41446;SDS011;27185;52.040;4.490;2023-10-08T14:07:53;12.68;;;7.28;;
41446;SDS011;27185;52.040;4.490;2023-10-08T14:10:39;15.75;;;7.22;;
41446;SDS011;27185;52.040;4.490;2023-10-08T14:13:31;14.98;;;8.30;;
41446;SDS011;27185;52.040;4.490;2023-10-08T14:16:18;16.58;;;7.80;;
41446;SDS011;27185;52.040;4.490;2023-10-08T14:19:11;19.33;;;8.10;;
41446;SDS011;27185;52.040;4.490;2023-10-08T14:22:00;19.13;;;8.02;;
41446;SDS011;27185;52.040;4.490;2023-10-08T14:24:48;17.10;;;8.18;;
41446;SDS011;27185;52.040;4.490;2023-10-08T14:27:43;14.90;;;7.82;;
41446;SDS011;27185;52.040;4.490;2023-10-08T14:30:37;14.77;;;7.15;;
41446;SDS011;27185;52.040;4.490;2023-10-08T14:33:26;11.80;;;7.35;;
41446;SDS011;27185;52.040;4.490;2023-10-08T14:36:16;18.48;;;7.13;;
41446;SDS011;27185;52.040;4.490;2023-10-08T14:39:20;14.02;;;7.05;;
41446;SDS011;27185;52.040;4.490;2023-10-08T14:42:24;18.45;;;7.18;;
41446;SDS011;27185;52.040;4.490;2023-10-08T14:45:29;13.18;;;6.65;;
41446;SDS011;27185;52.040;4.490;2023-10-08T14:48:20;13.63;;;7.38;;
41446;SDS011;27185;52.040;4.490;2023-10-08T14:51:07;11.52;;;6.82;;
41446;SDS011;27185;52.040;4.490;2023-10-08T14:53:53;13.35;;;7.32;;
41446;SDS011;27185;52.040;4.490;2023-10-08T14:56:38;15.35;;;7.93;;
41446;SDS011;27185;52.040;4.490;2023-10-08T14:59:24;16.50;;;7.35;;
41446;SDS011;27185;52.040;4.490;2023-10-08T15:02:13;10.98;;;6.45;;
41446;SDS011;27185;52.040;4.490;2023-10-08T15:04:58;12.05;;;6.40;;
41446;SDS011;27185;52.040;4.490;2023-10-08T15:07:46;9.90;;;5.60;;
41446;SDS011;27185;52.040;4.490;2023-10-08T15:10:34;11.40;;;6.72;;
41446;SDS011;27185;52.040;4.490;2023-10-08T15:13:19;15.27;;;6.75;;
41446;SDS011;27185;52.040;4.490;2023-10-08T15:16:05;11.68;;;6.22;;
41446;SDS011;27185;52.040;4.490;2023-10-08T15:18:51;11.38;;;6.05;;
41446;SDS011;27185;52.040;4.490;2023-10-08T15:21:36;13.05;;;6.57;;
41446;SDS011;27185;52.040;4.490;2023-10-08T15:24:24;11.95;;;6.35;;
41446;SDS011;27185;52.040;4.490;2023-10-08T15:27:09;15.50;;;7.22;;
41446;SDS011;27185;52.040;4.490;2023-10-08T15:29:55;15.90;;;6.70;;
41446;SDS011;27185;52.040;4.490;2023-10-08T15:32:41;13.23;;;7.38;;
41446;SDS011;27185;52.040;4.490;2023-10-08T15:35:32;12.57;;;6.72;;
41446;SDS011;27185;52.040;4.490;2023-10-08T15:38:18;13.30;;;6.78;;
41446;SDS011;27185;52.040;4.490;2023-10-08T15:41:03;11.25;;;5.90;;
41446;SDS011;27185;52.040;4.490;2023-10-08T15:43:50;15.43;;;7.25;;
41446;SDS011;27185;52.040;4.490;2023-10-08T15:46:36;14.57;;;6.70;;
41446;SDS011;27185;52.040;4.490;2023-10-08T15:49:22;14.63;;;7.63;;
41446;SDS011;27185;52.040;4.490;2023-10-08T15:52:07;15.45;;;7.40;;
41446;SDS011;27185;52.040;4.490;2023-10-08T15:54:53;13.50;;;6.03;;
41446;SDS011;27185;52.040;4.490;2023-10-08T15:57:39;18.77;;;7.03;;
41446;SDS011;27185;52.040;4.490;2023-10-08T16:00:25;12.18;;;5.97;;
41446;SDS011;27185;52.040;4.490;2023-10-08T16:03:12;12.93;;;6.07;;
41446;SDS011;27185;52.040;4.490;2023-10-08T16:05:57;11.18;;;5.25;;
41446;SDS011;27185;52.040;4.490;2023-10-08T16:08:43;10.00;;;5.43;;
41446;SDS011;27185;52.040;4.490;2023-10-08T16:11:32;15.48;;;5.70;;
41446;SDS011;27185;52.040;4.490;2023-10-08T16:14:19;11.80;;;5.53;;
41446;SDS011;27185;52.040;4.490;2023-10-08T16:17:05;11.10;;;5.70;;
41446;SDS011;27185;52.040;4.490;2023-10-08T16:19:52;11.73;;;5.65;;
41446;SDS011;27185;52.040;4.490;2023-10-08T16:22:38;14.82;;;5.03;;
41446;SDS011;27185;52.040;4.490;2023-10-08T16:25:24;9.70;;;4.82;;
41446;SDS011;27185;52.040;4.490;2023-10-08T16:28:09;9.88;;;5.63;;
41446;SDS011;27185;52.040;4.490;2023-10-08T16:30:56;11.13;;;5.28;;
41446;SDS011;27185;52.040;4.490;2023-10-08T16:33:43;10.47;;;5.30;;
41446;SDS011;27185;52.040;4.490;2023-10-08T16:36:29;10.88;;;4.97;;
41446;SDS011;27185;52.040;4.490;2023-10-08T16:39:15;9.18;;;4.72;;
41446;SDS011;27185;52.040;4.490;2023-10-08T16:42:03;14.38;;;4.93;;
41446;SDS011;27185;52.040;4.490;2023-10-08T16:44:49;7.35;;;4.43;;
41446;SDS011;27185;52.040;4.490;2023-10-08T16:47:35;7.82;;;4.45;;
41446;SDS011;27185;52.040;4.490;2023-10-08T16:50:21;10.32;;;5.38;;
41446;SDS011;27185;52.040;4.490;2023-10-08T16:53:07;9.70;;;4.78;;
41446;SDS011;27185;52.040;4.490;2023-10-08T16:55:52;9.93;;;4.45;;
41446;SDS011;27185;52.040;4.490;2023-10-08T16:58:38;10.35;;;4.20;;
41446;SDS011;27185;52.040;4.490;2023-10-08T17:01:23;10.40;;;4.22;;
41446;SDS011;27185;52.040;4.490;2023-10-08T17:04:09;11.75;;;4.95;;
41446;SDS011;27185;52.040;4.490;2023-10-08T17:09:42;9.60;;;3.75;;